First Clarity — A8RM8 — position and weather

sailwx.info

Track history (hours):
 
Tides and Currents Weather Stations Pressure Air Temp Water Temp Dewpoint Dewpoint Depression Visibility Wind Speed Wind Dir Waves Ship Positions

First Clarity

Last reported at 2015-Mar-30 15:12 UTC. Time now 2015-Apr-01 16:38 UTC.
Position N 34°58' E 139°27'.

Length 104 m; draft 5.8 m.

Type: Cargo ship. MMSI: 636014129.

Date/timePositionNaut miles runAvg speedWind from/ knotsBaromVisibWave heightAir tempDewpointWater temp
2015-Mar-30 15:12N 34°58' E 139°27'6 8.8
2015-Mar-30 14:33N 35°00' E 139°33'9 9.5
2015-Mar-30 13:33N 35°06' E 139°42'9 9.3
2015-Mar-30 12:33N 35°14' E 139°46'9 9.0
2015-Mar-30 11:33N 35°22' E 139°41'3 3.1
2015-Mar-30 10:33N 35°24' E 139°38'0 0.0
2015-Mar-30 09:33N 35°24' E 139°38'0 0.0
2015-Mar-30 08:33N 35°24' E 139°38'0 0.0
2015-Mar-30 07:33N 35°24' E 139°38'0 0.0
2015-Mar-30 06:33N 35°24' E 139°38'0 0.0
2015-Mar-30 05:33N 35°24' E 139°38'0 0.0
2015-Mar-30 04:33N 35°24' E 139°38'0 0.0
2015-Mar-30 03:33N 35°24' E 139°38'0 0.0
2015-Mar-30 02:33N 35°24' E 139°38'0 0.0
2015-Mar-30 01:33N 35°24' E 139°38'0 0.0
2015-Mar-30 00:33N 35°24' E 139°38'0 0.0
2015-Mar-29 23:33N 35°24' E 139°38'0 0.2
2015-Mar-29 22:33N 35°25' E 139°39'2 1.6
2015-Mar-29 21:32N 35°23' E 139°40'0 0.0
2015-Mar-29 20:32N 35°23' E 139°40'0 0.0
2015-Mar-29 19:32N 35°23' E 139°40'0 0.0
2015-Mar-29 18:32N 35°23' E 139°40'0 0.0
2015-Mar-29 17:32N 35°23' E 139°40'0 0.0
2015-Mar-29 16:32N 35°23' E 139°40'0 0.1
2015-Mar-29 15:32N 35°23' E 139°40'0 0.1
2015-Mar-29 14:32N 35°23' E 139°40'0 0.0
2015-Mar-29 13:32N 35°23' E 139°40'0 0.1
2015-Mar-29 12:32N 35°23' E 139°40'0 0.1
2015-Mar-29 11:32N 35°23' E 139°40'0 0.0
2015-Mar-29 10:29N 35°23' E 139°40'0 0.1
2015-Mar-29 09:32N 35°23' E 139°40'0 0.0
2015-Mar-29 08:32N 35°23' E 139°40'0 0.0
2015-Mar-29 07:32N 35°23' E 139°40'0 0.0
2015-Mar-29 06:32N 35°23' E 139°40'0 0.0
2015-Mar-29 05:32N 35°23' E 139°40'0 0.0
2015-Mar-29 04:32N 35°23' E 139°40'0 0.0
2015-Mar-29 03:29N 35°23' E 139°40'0 0.0
2015-Mar-29 02:32N 35°23' E 139°40'0 0.0
2015-Mar-29 01:32N 35°23' E 139°40'0 0.1
2015-Mar-29 00:34N 35°23' E 139°40'8 8.0
2015-Mar-28 23:33N 35°17' E 139°46'1010.4
2015-Mar-28 22:34N 35°06' E 139°46'1110.4
2015-Mar-28 21:33N 34°59' E 139°37'  
Track history (hours):
 
Tides and Currents Weather Stations Pressure Air Temp Water Temp Dewpoint Dewpoint Depression Visibility Wind Speed Wind Dir Waves Ship Positions

First Clarity

Last reported at 2015-Mar-30 15:12 UTC. Time now 2015-Apr-01 16:38 UTC.
Position N 34°58' E 139°27'.

Length 104 m; draft 5.8 m.

Type: Cargo ship. MMSI: 636014129.

Date/timePositionNaut miles runAvg speedWind from/ knotsBaromVisibWave heightAir tempDewpointWater temp
2015-Mar-30 15:12N 34°58' E 139°27'6 8.8
2015-Mar-30 14:33N 35°00' E 139°33'9 9.5
2015-Mar-30 13:33N 35°06' E 139°42'9 9.3
2015-Mar-30 12:33N 35°14' E 139°46'9 9.0
2015-Mar-30 11:33N 35°22' E 139°41'3 3.1
2015-Mar-30 10:33N 35°24' E 139°38'0 0.0
2015-Mar-30 09:33N 35°24' E 139°38'0 0.0
2015-Mar-30 08:33N 35°24' E 139°38'0 0.0
2015-Mar-30 07:33N 35°24' E 139°38'0 0.0
2015-Mar-30 06:33N 35°24' E 139°38'0 0.0
2015-Mar-30 05:33N 35°24' E 139°38'0 0.0
2015-Mar-30 04:33N 35°24' E 139°38'0 0.0
2015-Mar-30 03:33N 35°24' E 139°38'0 0.0
2015-Mar-30 02:33N 35°24' E 139°38'0 0.0
2015-Mar-30 01:33N 35°24' E 139°38'0 0.0
2015-Mar-30 00:33N 35°24' E 139°38'0 0.0
2015-Mar-29 23:33N 35°24' E 139°38'0 0.2
2015-Mar-29 22:33N 35°25' E 139°39'2 1.6
2015-Mar-29 21:32N 35°23' E 139°40'0 0.0
2015-Mar-29 20:32N 35°23' E 139°40'0 0.0
2015-Mar-29 19:32N 35°23' E 139°40'0 0.0
2015-Mar-29 18:32N 35°23' E 139°40'0 0.0
2015-Mar-29 17:32N 35°23' E 139°40'0 0.0
2015-Mar-29 16:32N 35°23' E 139°40'0 0.1
2015-Mar-29 15:32N 35°23' E 139°40'0 0.1
2015-Mar-29 14:32N 35°23' E 139°40'0 0.0
2015-Mar-29 13:32N 35°23' E 139°40'0 0.1
2015-Mar-29 12:32N 35°23' E 139°40'0 0.1
2015-Mar-29 11:32N 35°23' E 139°40'0 0.0
2015-Mar-29 10:29N 35°23' E 139°40'0 0.1
2015-Mar-29 09:32N 35°23' E 139°40'0 0.0
2015-Mar-29 08:32N 35°23' E 139°40'0 0.0
2015-Mar-29 07:32N 35°23' E 139°40'0 0.0
2015-Mar-29 06:32N 35°23' E 139°40'0 0.0
2015-Mar-29 05:32N 35°23' E 139°40'0 0.0
2015-Mar-29 04:32N 35°23' E 139°40'0 0.0
2015-Mar-29 03:29N 35°23' E 139°40'0 0.0
2015-Mar-29 02:32N 35°23' E 139°40'0 0.0
2015-Mar-29 01:32N 35°23' E 139°40'0 0.1
2015-Mar-29 00:34N 35°23' E 139°40'8 8.0
2015-Mar-28 23:33N 35°17' E 139°46'1010.4
2015-Mar-28 22:34N 35°06' E 139°46'1110.4
2015-Mar-28 21:33N 34°59' E 139°37'  

Dump ship's entire track history